createdAt,value
2023-02-16T00:00:06.341Z,101282.27
2023-02-16T00:01:22.219Z,101278.91
2023-02-16T00:02:26.660Z,101283.42
2023-02-16T00:03:32.980Z,101278.09
2023-02-16T00:04:37.606Z,101268.50
2023-02-16T00:05:40.479Z,101271.97
2023-02-16T00:06:46.017Z,101274.52
2023-02-16T00:07:49.344Z,101272.72
2023-02-16T00:08:54.467Z,101275.50
2023-02-16T00:09:57.529Z,101283.34
2023-02-16T00:11:19.524Z,101276.28
2023-02-16T00:12:41.732Z,101270.98
2023-02-16T00:13:48.912Z,101274.45
2023-02-16T00:14:52.192Z,101273.74
2023-02-16T00:15:55.581Z,101267.52
2023-02-16T00:17:00.051Z,101266.67
2023-02-16T00:18:05.240Z,101271.97
2023-02-16T00:19:12.467Z,101277.16
2023-02-16T00:20:19.322Z,101278.89
2023-02-16T00:21:23.454Z,101279.73
2023-02-16T00:22:27.508Z,101279.70
2023-02-16T00:23:30.882Z,101282.31
2023-02-16T00:24:34.142Z,101280.58
2023-02-16T00:25:38.005Z,101278.82
2023-02-16T00:26:43.384Z,101274.48
2023-02-16T00:27:47.513Z,101279.70
2023-02-16T00:28:52.901Z,101270.16
2023-02-16T00:29:57.583Z,101273.64
2023-02-16T00:31:01.679Z,101278.84
2023-02-16T00:32:05.903Z,101278.91
2023-02-16T00:33:16.937Z,101278.86
2023-02-16T00:34:28.396Z,101275.36
2023-02-16T00:35:33.568Z,101272.76
2023-02-16T00:36:36.972Z,101273.66
2023-02-16T00:37:40.286Z,101275.40
2023-02-16T00:38:43.393Z,101277.98
2023-02-16T00:39:46.533Z,101277.16
2023-02-16T00:40:50.153Z,101278.02
2023-02-16T00:41:54.484Z,101274.48
2023-02-16T00:42:58.128Z,101272.76
2023-02-16T00:44:02.028Z,101278.82
2023-02-16T00:45:08.724Z,101277.95
2023-02-16T00:46:14.764Z,101275.29
2023-02-16T00:47:25.228Z,101272.69
2023-02-16T00:48:28.534Z,101274.47
2023-02-16T00:49:31.711Z,101271.84
2023-02-16T00:50:35.703Z,101274.52
2023-02-16T00:51:38.878Z,101277.16
2023-02-16T00:52:43.570Z,101268.48
2023-02-16T00:53:49.216Z,101267.61
2023-02-16T00:54:51.376Z,101270.22
2023-02-16T00:55:58.436Z,101270.23
2023-02-16T00:57:01.890Z,101267.66
2023-02-16T00:58:06.087Z,101272.02
2023-02-16T00:59:14.390Z,101273.72
2023-02-16T01:00:19.149Z,101269.34
2023-02-16T01:01:24.494Z,101270.34
2023-02-16T01:02:29.186Z,101270.30
2023-02-16T01:03:32.366Z,101265.04
2023-02-16T01:04:35.836Z,101261.57
2023-02-16T01:05:39.283Z,101253.69
2023-02-16T01:07:01.412Z,101252.89
2023-02-16T01:08:24.613Z,101258.93
2023-02-16T01:09:45.571Z,101259.86
2023-02-16T01:11:07.766Z,101255.42
2023-02-16T01:12:12.834Z,101261.51
2023-02-16T01:13:16.270Z,101258.05
2023-02-16T01:14:19.959Z,101263.28
2023-02-16T01:15:25.134Z,101258.00
2023-02-16T01:16:30.730Z,101262.35
2023-02-16T01:17:36.554Z,101262.30
2023-02-16T01:18:41.108Z,101257.92
2023-02-16T01:19:43.960Z,101251.81
2023-02-16T01:20:49.104Z,101256.19
2023-02-16T01:21:52.644Z,101248.38
2023-02-16T01:22:56.557Z,101243.21
2023-02-16T01:23:59.980Z,101240.56
2023-02-16T01:25:03.891Z,101244.97
2023-02-16T01:26:08.392Z,101254.64
2023-02-16T01:27:14.817Z,101248.66
2023-02-16T01:28:21.920Z,101245.96
2023-02-16T01:29:24.578Z,101244.14
2023-02-16T01:30:28.561Z,101251.17
2023-02-16T01:31:33.286Z,101251.16
2023-02-16T01:32:37.391Z,101243.25
2023-02-16T01:33:43.126Z,101245.94
2023-02-16T01:34:46.480Z,101244.19
2023-02-16T01:35:50.736Z,101241.66
2023-02-16T01:36:54.235Z,101243.44
2023-02-16T01:37:57.536Z,101241.73
2023-02-16T01:39:00.406Z,101241.69
2023-02-16T01:40:07.557Z,101237.33
2023-02-16T01:41:32.275Z,101237.33
2023-02-16T01:42:55.539Z,101239.09
2023-02-16T01:44:18.988Z,101243.44
2023-02-16T01:45:24.988Z,101248.58
2023-02-16T01:46:35.726Z,101244.12
2023-02-16T01:47:41.810Z,101244.16
2023-02-16T01:48:47.108Z,101241.56
2023-02-16T01:49:49.883Z,101243.39
2023-02-16T01:50:58.922Z,101247.79
2023-02-16T01:52:04.518Z,101246.02
2023-02-16T01:53:10.887Z,101246.91
2023-02-16T01:54:20.806Z,101246.95
2023-02-16T01:55:29.133Z,101246.08
2023-02-16T01:56:42.995Z,101247.89
2023-02-16T01:57:49.416Z,101248.78
2023-02-16T01:58:56.243Z,101249.61
2023-02-16T02:00:01.426Z,101248.78
2023-02-16T02:01:08.280Z,101253.16
2023-02-16T02:02:17.604Z,101248.72
2023-02-16T02:03:43.478Z,101250.47
2023-02-16T02:05:13.614Z,101243.44
2023-02-16T02:06:18.909Z,101250.43
2023-02-16T02:07:23.449Z,101239.83
2023-02-16T02:08:31.768Z,101250.29
2023-02-16T02:09:37.564Z,101246.87
2023-02-16T02:10:53.402Z,101233.83
2023-02-16T02:12:04.413Z,101239.95
2023-02-16T02:13:23.706Z,101233.83
2023-02-16T02:14:29.610Z,101237.39
2023-02-16T02:15:35.626Z,101241.75
2023-02-16T02:16:39.965Z,101233.93
2023-02-16T02:17:42.319Z,101235.66
2023-02-16T02:18:45.584Z,101244.64
2023-02-16T02:19:51.023Z,101247.16
2023-02-16T02:21:31.375Z,101249.74
2023-02-16T02:23:08.079Z,101246.27
2023-02-16T02:24:27.223Z,101248.78
2023-02-16T02:25:50.611Z,101250.63
2023-02-16T02:26:56.126Z,101249.66
2023-02-16T02:28:01.493Z,101248.88
2023-02-16T02:29:10.000Z,101252.36
2023-02-16T02:30:32.732Z,101254.11
2023-02-16T02:31:51.979Z,101255.14
2023-02-16T02:32:59.267Z,101250.77
2023-02-16T02:34:08.734Z,101259.41
2023-02-16T02:35:26.169Z,101251.55
2023-02-16T02:36:35.067Z,101255.04
2023-02-16T02:37:45.779Z,101252.42
2023-02-16T02:39:10.910Z,101255.81
2023-02-16T02:40:23.834Z,101243.56
2023-02-16T02:41:33.583Z,101257.50
2023-02-16T02:42:40.119Z,101247.88
2023-02-16T02:43:51.020Z,101248.76
2023-02-16T02:44:56.135Z,101247.89
2023-02-16T02:46:02.845Z,101245.30
2023-02-16T02:47:06.453Z,101240.94
2023-02-16T02:48:10.542Z,101247.03
2023-02-16T02:49:14.824Z,101240.92
2023-02-16T02:50:39.545Z,101240.03
2023-02-16T02:51:45.238Z,101241.81
2023-02-16T02:52:49.060Z,101235.72
2023-02-16T02:54:28.072Z,101246.25
2023-02-16T02:55:53.606Z,101241.12
2023-02-16T02:57:20.297Z,101239.33
2023-02-16T02:58:46.061Z,101248.05
2023-02-16T03:00:10.248Z,101242.83
2023-02-16T03:01:15.060Z,101247.19
2023-02-16T03:02:19.937Z,101244.64
2023-02-16T03:03:29.519Z,101239.41
2023-02-16T03:04:35.330Z,101237.62
2023-02-16T03:05:40.619Z,101238.50
2023-02-16T03:06:45.060Z,101233.28
2023-02-16T03:07:49.164Z,101233.32
2023-02-16T03:08:54.610Z,101235.88
2023-02-16T03:09:59.235Z,101234.15
2023-02-16T03:11:23.321Z,101237.62
2023-02-16T03:12:46.561Z,101237.64
2023-02-16T03:13:53.785Z,101223.67
2023-02-16T03:15:01.092Z,101233.41
2023-02-16T03:16:06.801Z,101234.27
2023-02-16T03:17:31.713Z,101237.67
2023-02-16T03:18:54.588Z,101233.28
2023-02-16T03:20:18.390Z,101237.77
2023-02-16T03:21:42.074Z,101231.59
2023-02-16T03:23:03.164Z,101235.09
2023-02-16T03:24:27.098Z,101229.86
2023-02-16T03:25:49.813Z,101231.66
2023-02-16T03:27:11.817Z,101226.48
2023-02-16T03:28:33.806Z,101224.80
2023-02-16T03:29:37.841Z,101217.77
2023-02-16T03:30:45.113Z,101225.66
2023-02-16T03:31:49.353Z,101216.95
2023-02-16T03:32:53.373Z,101216.07
2023-02-16T03:33:56.973Z,101216.11
2023-02-16T03:35:03.719Z,101218.70
2023-02-16T03:36:07.758Z,101222.16
2023-02-16T03:37:10.815Z,101212.63
2023-02-16T03:38:17.409Z,101215.31
2023-02-16T03:39:22.571Z,101223.19
2023-02-16T03:40:31.523Z,101212.70
2023-02-16T03:41:35.709Z,101210.10
2023-02-16T03:42:39.021Z,101211.89
2023-02-16T03:43:42.093Z,101210.16
2023-02-16T03:44:45.230Z,101205.79
2023-02-16T03:45:47.769Z,101210.14
2023-02-16T03:46:51.463Z,101209.73
2023-02-16T03:47:57.159Z,101210.81
2023-02-16T03:49:02.686Z,101208.23
2023-02-16T03:50:06.860Z,101212.59
2023-02-16T03:51:10.495Z,101209.09
2023-02-16T03:52:13.283Z,101212.56
2023-02-16T03:53:17.507Z,101215.19
2023-02-16T03:54:20.476Z,101213.44
2023-02-16T03:55:24.667Z,101206.48
2023-02-16T03:56:28.332Z,101212.68
2023-02-16T03:57:31.513Z,101216.16
2023-02-16T03:58:35.147Z,101212.68
2023-02-16T03:59:40.351Z,101203.98
2023-02-16T04:00:44.048Z,101202.29
2023-02-16T04:01:47.665Z,101208.39
2023-02-16T04:02:51.245Z,101202.30
2023-02-16T04:03:54.367Z,101207.59
2023-02-16T04:04:59.823Z,101209.34
2023-02-16T04:06:03.333Z,101202.34
2023-02-16T04:07:06.505Z,101202.33
2023-02-16T04:08:10.396Z,101206.66
2023-02-16T04:09:15.508Z,101206.58
2023-02-16T04:10:18.183Z,101203.11
2023-02-16T04:11:40.583Z,101211.83
2023-02-16T04:12:44.618Z,101211.83
2023-02-16T04:13:47.385Z,101210.10
2023-02-16T04:14:50.798Z,101205.73
2023-02-16T04:15:56.074Z,101205.75
2023-02-16T04:16:59.474Z,101209.25
2023-02-16T04:18:02.883Z,101201.38
2023-02-16T04:19:08.260Z,101192.66
2023-02-16T04:20:12.284Z,101200.48
2023-02-16T04:21:17.149Z,101191.81
2023-02-16T04:22:21.940Z,101191.86
2023-02-16T04:23:24.276Z,101193.56
2023-02-16T04:24:28.822Z,101190.76
2023-02-16T04:25:31.490Z,101189.13
2023-02-16T04:26:34.369Z,101183.97
2023-02-16T04:27:37.663Z,101188.31
2023-02-16T04:28:42.530Z,101190.91
2023-02-16T04:29:46.232Z,101183.92
2023-02-16T04:30:52.843Z,101183.06
2023-02-16T04:31:57.132Z,101178.70
2023-02-16T04:33:00.415Z,101181.31
2023-02-16T04:34:04.595Z,101183.88
2023-02-16T04:35:08.978Z,101187.39
2023-02-16T04:36:12.475Z,101180.40
2023-02-16T04:37:15.046Z,101183.88
2023-02-16T04:38:19.307Z,101178.67
2023-02-16T04:39:22.427Z,101183.03
2023-02-16T04:40:25.354Z,101183.02
2023-02-16T04:41:27.721Z,101176.84
2023-02-16T04:42:31.203Z,101176.03
2023-02-16T04:43:35.243Z,101177.73
2023-02-16T04:44:39.477Z,101182.06
2023-02-16T04:45:42.919Z,101177.67
2023-02-16T04:46:46.698Z,101181.22
2023-02-16T04:47:50.140Z,101185.56
2023-02-16T04:48:53.602Z,101172.56
2023-02-16T04:49:56.904Z,101164.77
2023-02-16T04:51:02.364Z,101181.22
2023-02-16T04:52:06.726Z,101174.20
2023-02-16T04:53:10.127Z,101182.03
2023-02-16T04:54:15.621Z,101178.53
2023-02-16T04:55:18.602Z,101176.78
2023-02-16T04:56:24.611Z,101177.65
2023-02-16T04:57:27.174Z,101171.52
2023-02-16T04:58:36.634Z,101174.20
2023-02-16T04:59:39.930Z,101178.49
2023-02-16T05:00:43.864Z,101175.89
2023-02-16T05:01:47.595Z,101175.09
2023-02-16T05:02:51.063Z,101174.70
2023-02-16T05:03:54.897Z,101166.38
2023-02-16T05:04:57.130Z,101173.58
2023-02-16T05:06:00.661Z,101169.55
2023-02-16T05:07:03.733Z,101166.97
2023-02-16T05:08:06.303Z,101162.72
2023-02-16T05:09:09.889Z,101167.13
2023-02-16T05:10:13.570Z,101161.98
2023-02-16T05:11:34.362Z,101171.68
2023-02-16T05:12:56.148Z,101168.99
2023-02-16T05:14:17.934Z,101169.80
2023-02-16T05:15:21.751Z,101168.04
2023-02-16T05:16:25.670Z,101177.36
2023-02-16T05:17:28.150Z,101168.98
2023-02-16T05:18:34.199Z,101165.24
2023-02-16T05:19:40.934Z,101158.57
2023-02-16T05:21:02.817Z,101169.31
2023-02-16T05:22:06.269Z,101166.02
2023-02-16T05:23:10.466Z,101168.68
2023-02-16T05:24:13.705Z,101168.80
2023-02-16T05:25:15.970Z,101166.23
2023-02-16T05:26:19.461Z,101161.01
2023-02-16T05:27:26.728Z,101171.52
2023-02-16T05:28:30.899Z,101161.01
2023-02-16T05:29:34.679Z,101157.62
2023-02-16T05:30:44.883Z,101155.02
2023-02-16T05:31:47.719Z,101160.14
2023-02-16T05:32:52.291Z,101158.41
2023-02-16T05:33:56.100Z,101161.92
2023-02-16T05:34:59.401Z,101162.74
2023-02-16T05:36:02.290Z,101169.63
2023-02-16T05:37:05.616Z,101165.31
2023-02-16T05:38:08.238Z,101162.64
2023-02-16T05:39:11.750Z,101165.24
2023-02-16T05:40:15.069Z,101178.31
2023-02-16T05:41:28.473Z,101173.12
2023-02-16T05:42:31.884Z,101175.72
2023-02-16T05:43:35.440Z,101172.14
2023-02-16T05:44:38.302Z,101172.14
2023-02-16T05:45:42.610Z,101178.23
2023-02-16T05:46:46.930Z,101177.36
2023-02-16T05:47:50.445Z,101171.23
2023-02-16T05:48:53.750Z,101178.19
2023-02-16T05:49:57.037Z,101172.92
2023-02-16T05:51:00.354Z,101178.19
2023-02-16T05:52:04.569Z,101176.47
2023-02-16T05:53:07.615Z,101176.45
2023-02-16T05:54:14.922Z,101164.25
2023-02-16T05:55:20.099Z,101172.86
2023-02-16T05:56:24.250Z,101171.11
2023-02-16T05:57:26.599Z,101171.94
2023-02-16T05:58:29.922Z,101174.48
2023-02-16T05:59:33.179Z,101177.04
2023-02-16T06:00:38.576Z,101172.61
2023-02-16T06:01:41.355Z,101163.94
2023-02-16T06:02:44.688Z,101161.39
2023-02-16T06:03:48.623Z,101164.72
2023-02-16T06:04:51.894Z,101164.72
2023-02-16T06:06:00.512Z,101152.52
2023-02-16T06:07:06.492Z,101153.31
2023-02-16T06:08:10.411Z,101148.09
2023-02-16T06:09:13.085Z,101152.39
2023-02-16T06:10:17.836Z,101149.75
2023-02-16T06:11:36.322Z,101155.87
2023-02-16T06:12:44.804Z,101152.32
2023-02-16T06:13:49.360Z,101150.41
2023-02-16T06:14:56.196Z,101153.00
2023-02-16T06:15:59.969Z,101150.44
2023-02-16T06:17:03.217Z,101148.66
2023-02-16T06:18:06.297Z,101155.59
2023-02-16T06:19:10.350Z,101156.77
2023-02-16T06:20:13.945Z,101154.92
2023-02-16T06:21:17.341Z,101159.16
2023-02-16T06:22:20.000Z,101163.23
2023-02-16T06:23:23.295Z,101163.20
2023-02-16T06:24:26.711Z,101158.83
2023-02-16T06:25:30.107Z,101164.04
2023-02-16T06:26:34.369Z,101162.26
2023-02-16T06:27:37.628Z,101169.20
2023-02-16T06:28:40.987Z,101166.59
2023-02-16T06:29:44.545Z,101165.03
2023-02-16T06:30:47.962Z,101161.63
2023-02-16T06:31:51.439Z,101163.15
2023-02-16T06:32:54.523Z,101163.83
2023-02-16T06:33:57.945Z,101165.48
2023-02-16T06:35:01.340Z,101163.80
2023-02-16T06:36:05.514Z,101162.09
2023-02-16T06:37:07.936Z,101154.06
2023-02-16T06:38:11.540Z,101155.68
2023-02-16T06:39:16.819Z,101147.06
2023-02-16T06:40:20.537Z,101153.81
2023-02-16T06:41:34.696Z,101148.59
2023-02-16T06:42:38.609Z,101156.41
2023-02-16T06:43:42.127Z,101141.73
2023-02-16T06:44:45.421Z,101152.53
2023-02-16T06:45:49.802Z,101145.39
2023-02-16T06:46:53.634Z,101146.28
2023-02-16T06:47:57.277Z,101147.20
2023-02-16T06:49:00.271Z,101152.55
2023-02-16T06:50:06.939Z,101155.28
2023-02-16T06:51:10.414Z,101150.95
2023-02-16T06:52:13.638Z,101149.09
2023-02-16T06:53:17.204Z,101152.06
2023-02-16T06:54:20.395Z,101146.24
2023-02-16T06:55:23.637Z,101145.37
2023-02-16T06:56:27.196Z,101143.59
2023-02-16T06:57:29.344Z,101141.17
2023-02-16T06:58:32.546Z,101137.56
2023-02-16T06:59:35.310Z,101139.92
2023-02-16T07:00:40.636Z,101145.04
2023-02-16T07:01:45.312Z,101142.20
2023-02-16T07:02:48.064Z,101135.36
2023-02-16T07:03:51.667Z,101142.58
2023-02-16T07:04:55.033Z,101136.52
2023-02-16T07:06:01.257Z,101132.30
2023-02-16T07:07:05.244Z,101135.63
2023-02-16T07:08:09.104Z,101131.09
2023-02-16T07:09:13.039Z,101137.31
2023-02-16T07:10:18.829Z,101131.96
2023-02-16T07:11:23.403Z,101134.66
2023-02-16T07:12:26.767Z,101131.94
2023-02-16T07:13:33.198Z,101118.39
2023-02-16T07:14:36.922Z,101125.13
2023-02-16T07:15:41.569Z,101130.32
2023-02-16T07:16:46.977Z,101131.74
2023-02-16T07:17:51.330Z,101121.09
2023-02-16T07:18:55.281Z,101131.66
2023-02-16T07:20:00.007Z,101115.07
2023-02-16T07:21:03.755Z,101125.50
2023-02-16T07:22:07.471Z,101120.34
2023-02-16T07:23:10.000Z,101124.69
2023-02-16T07:24:12.843Z,101131.07
2023-02-16T07:25:16.257Z,101134.56
2023-02-16T07:26:20.070Z,101132.50
2023-02-16T07:27:24.208Z,101136.48
2023-02-16T07:28:27.916Z,101129.38
2023-02-16T07:29:31.423Z,101136.98
2023-02-16T07:30:34.688Z,101132.66
2023-02-16T07:31:40.818Z,101129.02
2023-02-16T07:32:44.443Z,101127.44
2023-02-16T07:33:48.164Z,101120.31
2023-02-16T07:34:51.491Z,101115.06
2023-02-16T07:35:55.064Z,101128.80
2023-02-16T07:37:00.009Z,101117.39
2023-02-16T07:38:03.766Z,101121.77
2023-02-16T07:39:08.607Z,101118.22
2023-02-16T07:40:12.094Z,101115.56
2023-02-16T07:41:18.431Z,101108.50
2023-02-16T07:42:25.267Z,101113.22
2023-02-16T07:43:28.401Z,101109.77
2023-02-16T07:44:31.530Z,101114.32
2023-02-16T07:45:36.890Z,101111.55
2023-02-16T07:46:41.286Z,101105.97
2023-02-16T07:47:43.745Z,101116.27
2023-02-16T07:48:49.700Z,101101.33
2023-02-16T07:49:53.473Z,101105.62
2023-02-16T07:50:56.974Z,101106.64
2023-02-16T07:52:00.377Z,101103.41
2023-02-16T07:53:04.300Z,101107.63
2023-02-16T07:54:07.807Z,101096.84
2023-02-16T07:55:12.044Z,101100.30
2023-02-16T07:56:19.828Z,101107.34
2023-02-16T07:57:26.573Z,101105.48
2023-02-16T07:58:30.105Z,101106.64
2023-02-16T07:59:35.564Z,101100.08
2023-02-16T08:00:39.289Z,101100.61
2023-02-16T08:01:43.193Z,101104.20
2023-02-16T08:02:46.985Z,101097.02
2023-02-16T08:03:50.733Z,101094.01
2023-02-16T08:04:54.796Z,101103.41
2023-02-16T08:06:03.289Z,101098.26
2023-02-16T08:07:08.769Z,101093.14
2023-02-16T08:08:11.559Z,101095.28
2023-02-16T08:09:14.631Z,101097.58
2023-02-16T08:10:19.169Z,101098.88
2023-02-16T08:11:24.356Z,101100.74
2023-02-16T08:12:28.643Z,101103.13
2023-02-16T08:13:31.889Z,101103.09
2023-02-16T08:14:35.153Z,101096.42
2023-02-16T08:15:37.553Z,101094.08
2023-02-16T08:16:39.962Z,101093.77
2023-02-16T08:17:44.282Z,101096.90
2023-02-16T08:18:47.955Z,101092.97
2023-02-16T08:19:53.548Z,101093.45
2023-02-16T08:21:04.219Z,101096.16
2023-02-16T08:22:03.901Z,101094.43
2023-02-16T08:23:08.335Z,101093.34
2023-02-16T08:24:13.106Z,101096.53
2023-02-16T08:25:16.715Z,101087.43
2023-02-16T08:26:20.429Z,101093.60
2023-02-16T08:27:22.784Z,101091.11
2023-02-16T08:28:27.319Z,101094.25
2023-02-16T08:29:30.909Z,101088.73
2023-02-16T08:30:34.379Z,101098.98
2023-02-16T08:31:37.695Z,101095.34
2023-02-16T08:32:41.049Z,101085.76
2023-02-16T08:34:04.955Z,101094.72
2023-02-16T08:35:09.154Z,101093.03
2023-02-16T08:36:23.205Z,101094.13
2023-02-16T08:37:26.186Z,101094.24
2023-02-16T08:38:28.952Z,101097.17
2023-02-16T08:39:34.559Z,101097.27
2023-02-16T08:40:37.918Z,101089.12
2023-02-16T08:41:42.790Z,101097.33
2023-02-16T08:42:47.084Z,101088.64
2023-02-16T08:43:49.922Z,101106.45
2023-02-16T08:44:53.793Z,101092.16
2023-02-16T08:45:57.893Z,101091.17
2023-02-16T08:47:01.805Z,101099.38
2023-02-16T08:48:06.049Z,101090.33
2023-02-16T08:49:09.846Z,101096.09
2023-02-16T08:50:13.141Z,101093.09
2023-02-16T08:51:18.755Z,101097.62
2023-02-16T08:52:22.483Z,101095.50
2023-02-16T08:53:27.733Z,101094.44
2023-02-16T08:54:34.534Z,101091.85
2023-02-16T08:55:38.818Z,101087.84
2023-02-16T08:56:43.563Z,101087.77
2023-02-16T08:57:46.762Z,101090.95
2023-02-16T08:58:50.298Z,101093.72
2023-02-16T08:59:56.697Z,101094.58
2023-02-16T09:01:01.845Z,101091.13
2023-02-16T09:02:06.823Z,101090.67
2023-02-16T09:03:10.297Z,101082.66
2023-02-16T09:04:14.280Z,101093.34
2023-02-16T09:05:17.605Z,101094.17
2023-02-16T09:06:22.992Z,101087.09
2023-02-16T09:07:25.626Z,101089.55
2023-02-16T09:08:29.018Z,101092.06
2023-02-16T09:09:33.134Z,101088.86
2023-02-16T09:10:36.625Z,101087.75
2023-02-16T09:11:40.169Z,101093.09
2023-02-16T09:12:44.614Z,101087.49
2023-02-16T09:13:48.433Z,101089.17
2023-02-16T09:14:53.413Z,101080.03
2023-02-16T09:15:58.262Z,101085.29
2023-02-16T09:17:01.518Z,101080.92
2023-02-16T09:18:04.434Z,101089.39
2023-02-16T09:19:07.302Z,101087.70
2023-02-16T09:20:13.213Z,101081.66
2023-02-16T09:21:18.441Z,101081.23
2023-02-16T09:22:22.206Z,101080.11
2023-02-16T09:23:27.311Z,101078.16
2023-02-16T09:24:32.987Z,101070.82
2023-02-16T09:25:55.601Z,101077.23
2023-02-16T09:27:00.125Z,101072.50
2023-02-16T09:28:04.078Z,101069.11
2023-02-16T09:29:07.618Z,101067.63
2023-02-16T09:30:12.148Z,101072.50
2023-02-16T09:31:17.583Z,101074.77
2023-02-16T09:32:20.288Z,101075.15
2023-02-16T09:33:23.409Z,101074.37
2023-02-16T09:34:28.198Z,101068.34
2023-02-16T09:35:30.493Z,101068.85
2023-02-16T09:36:33.678Z,101070.05
2023-02-16T09:37:37.085Z,101065.50
2023-02-16T09:38:40.492Z,101070.05
2023-02-16T09:39:45.350Z,101068.80
2023-02-16T09:40:49.745Z,101068.72
2023-02-16T09:42:06.446Z,101058.76
2023-02-16T09:43:12.148Z,101064.41
2023-02-16T09:44:25.265Z,101061.09
2023-02-16T09:45:30.403Z,101057.42
2023-02-16T09:46:33.569Z,101056.84
2023-02-16T09:47:39.588Z,101055.97
2023-02-16T09:48:45.494Z,101047.57
2023-02-16T09:49:49.888Z,101046.64
2023-02-16T09:50:55.104Z,101054.00
2023-02-16T09:52:12.053Z,101047.63
2023-02-16T09:53:19.041Z,101048.02
2023-02-16T09:54:27.204Z,101042.03
2023-02-16T09:55:46.580Z,101049.08
2023-02-16T09:56:52.653Z,101041.22
2023-02-16T09:57:57.778Z,101045.09
2023-02-16T09:59:05.765Z,101047.25
2023-02-16T10:00:27.454Z,101045.20
2023-02-16T10:01:40.500Z,101042.20
2023-02-16T10:02:51.040Z,101043.94
2023-02-16T10:03:57.284Z,101038.81
2023-02-16T10:05:14.739Z,101032.45
2023-02-16T10:06:19.023Z,101028.75
2023-02-16T10:07:27.445Z,101040.97
2023-02-16T10:08:32.940Z,101049.17
2023-02-16T10:09:36.622Z,101035.80
2023-02-16T10:10:58.224Z,101035.34
2023-02-16T10:12:06.141Z,101032.02
2023-02-16T10:14:33.103Z,101032.02
2023-02-16T10:15:38.166Z,101038.68
2023-02-16T10:16:42.273Z,101032.02
2023-02-16T10:17:47.592Z,101030.63
2023-02-16T10:18:52.438Z,101030.20
2023-02-16T10:19:57.905Z,101024.78
2023-02-16T10:21:03.382Z,101018.03
2023-02-16T10:22:09.000Z,101021.58
2023-02-16T10:23:19.536Z,101021.62
2023-02-16T10:24:23.838Z,101030.77
2023-02-16T10:25:31.934Z,101021.27
2023-02-16T10:26:37.219Z,101020.91
2023-02-16T10:27:42.415Z,101017.75
2023-02-16T10:28:54.994Z,101011.98
2023-02-16T10:29:59.637Z,101017.16
2023-02-16T10:31:09.484Z,101020.55
2023-02-16T10:32:16.581Z,101018.31
2023-02-16T10:33:24.988Z,101016.13
2023-02-16T10:34:32.143Z,101016.13
2023-02-16T10:35:52.267Z,101014.91
2023-02-16T10:36:57.429Z,101017.88
2023-02-16T10:38:10.039Z,101010.05
2023-02-16T10:39:15.210Z,101014.45
2023-02-16T10:40:23.212Z,101013.50
2023-02-16T10:41:36.619Z,101012.58
2023-02-16T10:42:46.922Z,101006.50
2023-02-16T10:44:09.907Z,101009.39
2023-02-16T10:45:18.484Z,100998.84
2023-02-16T10:46:26.087Z,101004.94
2023-02-16T10:47:35.542Z,100997.17
2023-02-16T10:48:40.145Z,100989.75
2023-02-16T10:49:45.237Z,100999.72
2023-02-16T10:50:58.185Z,101003.11
2023-02-16T10:52:02.900Z,100996.05
2023-02-16T10:53:09.668Z,101002.03
2023-02-16T10:54:13.786Z,101000.92
2023-02-16T10:55:18.565Z,100997.47
2023-02-16T10:56:23.930Z,100994.78
2023-02-16T10:57:29.267Z,101000.18
2023-02-16T10:58:36.988Z,100989.74
2023-02-16T10:59:41.544Z,100998.56
2023-02-16T11:00:58.011Z,100993.12
2023-02-16T11:02:02.137Z,100994.55
2023-02-16T11:03:07.680Z,100988.36
2023-02-16T11:04:13.180Z,100996.11
2023-02-16T11:05:34.066Z,100989.87
2023-02-16T11:06:37.466Z,100981.20
2023-02-16T11:07:43.651Z,100973.82
2023-02-16T11:08:47.609Z,100976.09
2023-02-16T11:09:55.725Z,100978.52
2023-02-16T11:11:01.307Z,100975.09
2023-02-16T11:12:19.222Z,100978.97
2023-02-16T11:13:29.280Z,100979.98
2023-02-16T11:14:33.249Z,100972.02
2023-02-16T11:15:37.873Z,100972.89
2023-02-16T11:16:42.072Z,100971.46
2023-02-16T11:17:53.448Z,100971.86
2023-02-16T11:18:58.738Z,100963.20
2023-02-16T11:20:04.960Z,100967.56
2023-02-16T11:21:09.512Z,100974.14
2023-02-16T11:22:14.685Z,100965.03
2023-02-16T11:23:20.610Z,100962.92
2023-02-16T11:24:34.767Z,100966.03
2023-02-16T11:25:38.787Z,100962.39
2023-02-16T11:26:42.316Z,100964.45
2023-02-16T11:27:52.223Z,100959.81
2023-02-16T11:28:57.429Z,100952.81
2023-02-16T11:30:18.684Z,100956.15
2023-02-16T11:31:24.032Z,100957.58
2023-02-16T11:32:28.849Z,100951.28
2023-02-16T11:33:32.553Z,100946.35
2023-02-16T11:34:37.423Z,100949.27
2023-02-16T11:35:42.953Z,100941.84
2023-02-16T11:36:47.772Z,100940.80
2023-02-16T11:37:50.975Z,100936.44
2023-02-16T11:39:01.206Z,100933.60
2023-02-16T11:40:06.545Z,100936.13
2023-02-16T11:41:10.978Z,100936.50
2023-02-16T11:42:22.873Z,100935.90
2023-02-16T11:43:36.810Z,100930.83
2023-02-16T11:44:42.832Z,100928.47
2023-02-16T11:45:47.268Z,100926.75
2023-02-16T11:46:49.505Z,100930.35
2023-02-16T11:47:56.438Z,100927.64
2023-02-16T11:49:02.152Z,100925.97
2023-02-16T11:50:06.279Z,100916.72
2023-02-16T11:51:11.464Z,100919.25
2023-02-16T11:52:24.687Z,100919.91
2023-02-16T11:53:29.325Z,100913.51
2023-02-16T11:54:33.551Z,100912.28
2023-02-16T11:55:39.097Z,100917.01
2023-02-16T11:56:42.269Z,100911.79
2023-02-16T11:57:45.738Z,100913.01
2023-02-16T11:58:55.125Z,100904.53
2023-02-16T12:00:00.128Z,100907.57
2023-02-16T12:01:21.656Z,100895.41
2023-02-16T12:02:25.990Z,100898.33
2023-02-16T12:03:41.620Z,100902.27
2023-02-16T12:04:46.953Z,100894.84
2023-02-16T12:06:02.316Z,100893.86
2023-02-16T12:07:16.970Z,100888.22
2023-02-16T12:08:41.227Z,100885.84
2023-02-16T12:09:48.316Z,100877.02
2023-02-16T12:11:00.098Z,100886.06
2023-02-16T12:12:08.081Z,100872.56
2023-02-16T12:13:16.314Z,100879.78
2023-02-16T12:14:38.326Z,100877.52
2023-02-16T12:15:48.678Z,100876.48
2023-02-16T12:17:10.359Z,100872.82
2023-02-16T12:18:21.692Z,100870.30
2023-02-16T12:19:44.788Z,100862.16
2023-02-16T12:20:52.756Z,100862.95
2023-02-16T12:21:58.112Z,100866.56
2023-02-16T12:23:12.479Z,100863.19
2023-02-16T12:24:33.019Z,100854.01
2023-02-16T12:25:44.056Z,100847.10
2023-02-16T12:26:58.925Z,100850.66
2023-02-16T12:28:05.463Z,100849.65
2023-02-16T12:29:12.554Z,100841.80
2023-02-16T12:30:24.840Z,100842.20
2023-02-16T12:31:35.161Z,100846.02
2023-02-16T12:32:57.493Z,100835.38
2023-02-16T12:34:05.706Z,100838.55
2023-02-16T12:35:10.569Z,100840.08
2023-02-16T12:36:17.295Z,100839.33
2023-02-16T12:37:27.955Z,100836.24
2023-02-16T12:38:40.493Z,100842.61
2023-02-16T12:39:46.016Z,100847.58
2023-02-16T12:41:00.266Z,100830.30
2023-02-16T12:42:09.344Z,100839.79
2023-02-16T12:43:30.864Z,100839.59